Time;durP1;ratioP1;P1;durP2;ratioP2;P2;SDS_P1;SDS_P2;PMS_P1;PMS_P2;Temp;Humidity;BMP_temperature;BMP_pressure;BME280_temperature;BME280_humidity;BME280_pressure;Samples;Min_cycle;Max_cycle;Signal;HPM_P1;HPM_P2
2023/06/07 00:01:25;;;;;;;4.75;4.03;;;22.00;52.90;;;;;;5073035;28;20170;-63
2023/06/07 00:03:51;;;;;;;4.20;3.80;;;22.00;53.60;;;;;;5072705;28;20227;-63
2023/06/07 00:06:16;;;;;;;4.97;3.83;;;22.00;53.00;;;;;;5072919;28;20178;-63
2023/06/07 00:08:43;;;;;;;4.13;3.72;;;22.00;53.00;;;;;;5072513;28;20265;-63
2023/06/07 00:11:09;;;;;;;4.57;3.95;;;22.00;53.00;;;;;;5072469;28;20178;-63
2023/06/07 00:13:35;;;;;;;4.53;3.65;;;22.00;53.00;;;;;;5073171;28;20177;-63
2023/06/07 00:16:00;;;;;;;3.75;3.35;;;22.00;53.00;;;;;;5073264;28;20170;-63
2023/06/07 00:18:28;;;;;;;4.85;3.83;;;22.00;53.00;;;;;;5071912;28;20676;-62
2023/06/07 00:20:53;;;;;;;4.82;3.72;;;21.90;52.90;;;;;;5072877;28;20530;-63
2023/06/07 00:23:20;;;;;;;5.10;3.80;;;22.00;53.00;;;;;;5072743;28;20227;-62
2023/06/07 00:25:46;;;;;;;4.88;3.60;;;21.90;53.00;;;;;;5072430;28;20505;-63
2023/06/07 00:28:11;;;;;;;4.45;4.00;;;21.90;53.00;;;;;;5072746;28;20178;-63
2023/06/07 00:30:37;;;;;;;4.35;3.95;;;21.90;53.00;;;;;;5072931;28;20634;-64
2023/06/07 00:33:02;;;;;;;4.25;3.60;;;21.90;53.00;;;;;;5072219;28;20178;-64
2023/06/07 00:35:28;;;;;;;4.55;3.63;;;21.90;53.10;;;;;;5072657;28;20171;-64
2023/06/07 00:37:54;;;;;;;6.30;4.32;;;21.90;53.10;;;;;;5072607;28;20237;-63
2023/06/07 00:40:19;;;;;;;5.10;3.83;;;21.90;53.00;;;;;;5071489;28;20171;-63
2023/06/07 00:42:45;;;;;;;5.20;3.97;;;21.90;53.10;;;;;;5072614;28;20175;-63
2023/06/07 00:45:10;;;;;;;4.18;3.78;;;21.90;53.10;;;;;;5072616;28;20253;-63
2023/06/07 00:47:37;;;;;;;3.97;3.17;;;21.90;53.00;;;;;;5072183;28;20574;-63
2023/06/07 00:50:03;;;;;;;4.25;3.88;;;21.90;53.10;;;;;;5072930;28;20175;-63
2023/06/07 00:52:28;;;;;;;4.35;3.72;;;21.90;53.10;;;;;;5072161;28;20179;-63
2023/06/07 00:54:54;;;;;;;5.03;3.72;;;21.90;53.20;;;;;;5075695;28;20196;-63
2023/06/07 00:57:20;;;;;;;5.22;3.90;;;21.90;53.10;;;;;;5076591;28;20340;-62
2023/06/07 00:59:45;;;;;;;3.72;3.35;;;21.90;53.20;;;;;;5076191;28;20589;-63
2023/06/07 01:02:14;;;;;;;5.25;4.03;;;21.90;53.20;;;;;;5076528;28;20231;-63
2023/06/07 01:04:40;;;;;;;3.97;3.58;;;21.80;53.10;;;;;;5076917;28;20201;-63
2023/06/07 01:07:07;;;;;;;4.10;3.70;;;21.80;53.10;;;;;;5075402;28;20557;-63
2023/06/07 01:09:33;;;;;;;5.43;3.80;;;21.80;53.10;;;;;;5076082;28;20178;-64
2023/06/07 01:11:58;;;;;;;4.60;3.85;;;21.80;53.10;;;;;;5074647;28;20170;-63
2023/06/07 01:14:24;;;;;;;4.72;4.03;;;21.80;53.10;;;;;;5072618;28;20170;-63
2023/06/07 01:16:50;;;;;;;6.05;3.95;;;21.90;53.20;;;;;;5075150;28;20175;-64
2023/06/07 01:19:18;;;;;;;4.28;3.70;;;21.80;53.20;;;;;;5076256;28;20170;-63
2023/06/07 01:21:43;;;;;;;3.60;3.30;;;21.80;53.20;;;;;;5075828;28;20182;-62
2023/06/07 01:24:10;;;;;;;5.18;4.20;;;21.80;53.20;;;;;;5074928;28;20174;-62
2023/06/07 01:26:36;;;;;;;5.72;3.58;;;21.70;53.10;;;;;;5076144;28;20546;-63
2023/06/07 01:29:05;;;;;;;5.78;4.05;;;21.80;53.20;;;;;;5074494;28;20172;-64
2023/06/07 01:31:35;;;;;;;3.95;3.55;;;21.80;53.20;;;;;;5074921;28;20179;-64
2023/06/07 01:34:01;;;;;;;3.95;3.28;;;21.80;53.20;;;;;;5074963;28;20209;-63
2023/06/07 01:36:26;;;;;;;6.28;4.20;;;21.80;53.20;;;;;;5074927;28;20174;-63
2023/06/07 01:38:52;;;;;;;4.28;3.70;;;21.80;53.20;;;;;;5074620;28;20230;-63
2023/06/07 01:41:18;;;;;;;3.83;3.50;;;21.70;53.20;;;;;;5074557;28;20277;-63
2023/06/07 01:43:43;;;;;;;4.07;3.67;;;21.80;53.30;;;;;;5075372;28;20295;-63
2023/06/07 01:46:09;;;;;;;4.85;3.60;;;21.70;53.20;;;;;;5074495;28;20171;-63
2023/06/07 01:48:35;;;;;;;5.88;3.60;;;21.80;53.20;;;;;;5074524;28;20205;-64
2023/06/07 01:51:00;;;;;;;4.82;2.65;;;21.70;53.20;;;;;;5074988;28;20198;-64
2023/06/07 01:53:27;;;;;;;6.57;4.10;;;21.70;53.20;;;;;;5075377;28;20637;-63
2023/06/07 01:56:17;;;;;;;3.72;3.40;;;21.70;53.30;;;;;;5073890;28;20193;-63
2023/06/07 01:58:57;;;;;;;3.63;3.28;;;21.70;53.20;;;;;;5068035;28;20675;-63
2023/06/07 02:01:45;;;;;;;5.68;3.85;;;21.70;53.20;;;;;;5074067;28;20304;-63
2023/06/07 02:04:11;;;;;;;4.10;3.70;;;21.70;53.20;;;;;;5073781;28;20227;-64
2023/06/07 02:06:40;;;;;;;4.78;3.42;;;21.70;53.30;;;;;;5073428;28;20177;-64
2023/06/07 02:09:07;;;;;;;4.45;3.60;;;21.70;53.30;;;;;;5075434;28;20174;-63
2023/06/07 02:11:33;;;;;;;4.07;3.38;;;21.60;53.30;;;;;;5074603;28;20174;-63
2023/06/07 02:13:58;;;;;;;4.10;3.70;;;21.70;53.30;;;;;;5075437;28;20175;-63
2023/06/07 02:16:35;;;;;;;3.85;3.00;;;21.70;53.30;;;;;;5073735;28;20220;-63
2023/06/07 02:19:04;;;;;;;4.75;3.67;;;21.70;53.30;;;;;;5074498;28;20713;-63
2023/06/07 02:21:31;;;;;;;4.55;3.03;;;21.70;53.30;;;;;;5074999;28;20174;-62
2023/06/07 02:23:56;;;;;;;3.78;3.40;;;21.70;53.30;;;;;;5074793;28;20183;-63
2023/06/07 02:26:24;;;;;;;5.47;3.88;;;21.70;53.30;;;;;;5074641;28;20181;-63
2023/06/07 02:28:49;;;;;;;4.97;3.90;;;21.60;53.30;;;;;;5075355;28;20182;-63
2023/06/07 02:31:17;;;;;;;5.03;3.60;;;21.60;53.30;;;;;;5074104;28;20167;-64
2023/06/07 02:33:42;;;;;;;4.07;3.30;;;21.70;53.30;;;;;;5074908;28;20175;-64
2023/06/07 02:36:08;;;;;;;4.15;3.70;;;21.60;53.30;;;;;;5074796;28;20175;-64
2023/06/07 02:38:33;;;;;;;4.15;3.15;;;21.60;53.30;;;;;;5074033;28;20234;-63
2023/06/07 02:40:59;;;;;;;4.80;3.55;;;21.60;53.30;;;;;;5074816;28;20174;-63
2023/06/07 02:43:24;;;;;;;4.70;3.00;;;21.60;53.30;;;;;;5074656;28;20269;-63
2023/06/07 02:45:50;;;;;;;5.90;3.47;;;21.60;53.30;;;;;;5074029;28;20175;-63
2023/06/07 02:48:16;;;;;;;3.70;3.35;;;21.60;53.40;;;;;;5074496;28;20513;-64
2023/06/07 02:50:41;;;;;;;5.10;3.42;;;21.60;53.40;;;;;;5074803;28;20167;-64
2023/06/07 02:53:07;;;;;;;4.93;3.60;;;21.60;53.30;;;;;;5073782;28;20656;-64
2023/06/07 02:55:33;;;;;;;3.75;3.30;;;21.50;53.30;;;;;;5074481;28;20166;-63
2023/06/07 02:57:59;;;;;;;3.78;3.03;;;21.60;53.40;;;;;;5074692;28;20210;-63
2023/06/07 03:00:26;;;;;;;4.80;3.35;;;21.60;53.40;;;;;;5073667;28;20699;-63
2023/06/07 03:02:51;;;;;;;3.92;3.53;;;21.60;53.40;;;;;;5074448;28;20543;-63
2023/06/07 03:05:17;;;;;;;4.20;3.40;;;21.60;53.40;;;;;;5074011;28;20253;-64
2023/06/07 03:07:43;;;;;;;3.50;3.08;;;21.60;53.30;;;;;;5073563;28;20265;-64
2023/06/07 03:10:09;;;;;;;3.95;3.30;;;21.60;53.40;;;;;;5074130;28;20256;-63
2023/06/07 03:12:34;;;;;;;3.53;2.97;;;21.50;53.30;;;;;;5074307;28;20178;-63
2023/06/07 03:15:00;;;;;;;4.55;3.67;;;21.50;53.40;;;;;;5073759;28;20179;-63
2023/06/07 03:17:25;;;;;;;4.43;3.08;;;21.50;53.30;;;;;;5073785;28;20566;-63
2023/06/07 03:19:51;;;;;;;3.42;3.10;;;21.50;53.40;;;;;;5074039;28;20537;-63
2023/06/07 03:22:17;;;;;;;3.30;3.00;;;21.50;53.30;;;;;;5073200;28;20660;-63
2023/06/07 03:24:43;;;;;;;4.50;2.92;;;21.50;53.30;;;;;;5074249;28;20182;-63
2023/06/07 03:27:11;;;;;;;4.30;3.33;;;21.50;53.40;;;;;;5073962;28;20183;-64
2023/06/07 03:29:37;;;;;;;3.50;3.20;;;21.50;53.40;;;;;;5073564;28;20198;-66
2023/06/07 03:32:02;;;;;;;4.05;3.00;;;21.50;53.40;;;;;;5073808;28;20642;-64
2023/06/07 03:34:29;;;;;;;4.35;3.47;;;21.50;53.30;;;;;;5072738;28;20178;-64
2023/06/07 03:36:58;;;;;;;4.30;3.20;;;21.50;53.40;;;;;;5073708;28;20190;-65
2023/06/07 03:39:24;;;;;;;4.22;2.95;;;21.50;53.40;;;;;;5073217;28;20689;-63
2023/06/07 03:41:49;;;;;;;3.40;2.97;;;21.50;53.30;;;;;;5073164;28;20209;-63
2023/06/07 03:44:15;;;;;;;4.65;3.40;;;21.50;53.40;;;;;;5073530;28;20265;-63
2023/06/07 03:46:41;;;;;;;4.75;3.10;;;21.50;53.30;;;;;;5073668;28;20167;-64
2023/06/07 03:49:07;;;;;;;3.95;3.10;;;21.50;53.30;;;;;;5072665;28;20184;-64
2023/06/07 03:51:33;;;;;;;4.75;3.45;;;21.50;53.30;;;;;;5073407;28;20257;-64
2023/06/07 03:53:59;;;;;;;3.90;3.00;;;21.50;53.30;;;;;;5074157;28;20560;-63
2023/06/07 03:56:25;;;;;;;5.40;3.38;;;21.50;53.30;;;;;;5072449;28;20178;-63
2023/06/07 03:58:53;;;;;;;5.25;3.22;;;21.40;53.30;;;;;;5073432;28;20214;-63
2023/06/07 04:01:19;;;;;;;3.90;3.50;;;21.50;54.00;;;;;;5073096;28;20182;-63
2023/06/07 04:03:44;;;;;;;4.68;3.35;;;21.50;53.30;;;;;;5072602;28;20706;-63
2023/06/07 04:06:10;;;;;;;4.18;3.10;;;21.40;53.30;;;;;;5072951;28;20189;-63
2023/06/07 04:08:36;;;;;;;4.35;3.30;;;21.40;53.30;;;;;;5073451;28;20291;-63
2023/06/07 04:11:02;;;;;;;4.03;2.95;;;21.50;53.40;;;;;;5072418;28;20178;-63
2023/06/07 04:13:27;;;;;;;4.78;3.22;;;21.40;53.30;;;;;;5073041;28;20227;-63
2023/06/07 04:15:53;;;;;;;4.70;3.15;;;21.40;53.30;;;;;;5073401;28;20182;-62
2023/06/07 04:18:18;;;;;;;4.05;3.20;;;21.40;53.30;;;;;;5071923;28;20209;-62
2023/06/07 04:20:44;;;;;;;4.40;3.28;;;21.40;53.30;;;;;;5073037;28;20253;-63
2023/06/07 04:23:10;;;;;;;3.88;3.38;;;21.40;54.00;;;;;;5072950;28;20270;-62
2023/06/07 04:25:36;;;;;;;4.65;3.22;;;21.40;53.30;;;;;;5072419;28;20728;-62
2023/06/07 04:28:01;;;;;;;4.30;3.10;;;21.40;53.20;;;;;;5072354;28;20175;-63
2023/06/07 04:30:34;;;;;;;3.63;2.92;;;21.40;53.30;;;;;;5072470;28;20174;-64
2023/06/07 04:33:03;;;;;;;5.05;3.20;;;21.40;53.30;;;;;;5073137;28;20206;-64
2023/06/07 04:35:31;;;;;;;3.60;2.97;;;21.40;53.20;;;;;;5072467;28;20690;-64
2023/06/07 04:37:57;;;;;;;5.32;2.92;;;21.40;53.20;;;;;;5071865;28;20587;-63
2023/06/07 04:40:23;;;;;;;4.45;3.08;;;21.40;53.20;;;;;;5072597;28;20266;-62
2023/06/07 04:43:05;;;;;;;3.78;3.15;;;21.40;53.20;;;;;;5072899;28;20249;-62
2023/06/07 04:45:34;;;;;;;3.42;3.10;;;21.40;53.20;;;;;;5071937;28;20182;-63
2023/06/07 04:48:00;;;;;;;4.22;3.08;;;21.40;53.20;;;;;;5072664;28;20186;-63
2023/06/07 04:50:28;;;;;;;3.30;3.00;;;21.40;53.20;;;;;;5072622;28;20228;-63
2023/06/07 04:53:00;;;;;;;3.40;2.97;;;21.40;53.20;;;;;;5071756;28;20197;-63
2023/06/07 04:55:30;;;;;;;3.88;3.35;;;21.50;53.10;;;;;;5072584;28;20182;-63
2023/06/07 04:57:56;;;;;;;3.75;2.80;;;21.50;53.10;;;;;;5072535;28;20289;-63
2023/06/07 05:00:22;;;;;;;3.00;2.72;;;21.50;53.00;;;;;;5071578;28;20170;-62
2023/06/07 05:02:48;;;;;;;5.65;3.20;;;21.50;53.70;;;;;;5072741;28;20178;-63
2023/06/07 05:05:14;;;;;;;3.72;3.35;;;21.50;53.10;;;;;;5072398;28;20531;-63
2023/06/07 05:07:44;;;;;;;3.05;2.70;;;21.50;53.10;;;;;;5071959;28;20569;-62
2023/06/07 05:10:10;;;;;;;4.07;2.88;;;21.50;53.10;;;;;;5072122;28;20180;-62
2023/06/07 05:12:35;;;;;;;3.75;3.03;;;21.50;53.00;;;;;;5072477;28;20186;-63
2023/06/07 05:15:02;;;;;;;4.32;3.40;;;21.50;53.00;;;;;;5071718;28;20170;-62
2023/06/07 05:17:28;;;;;;;4.13;3.05;;;21.50;53.00;;;;;;5071879;28;20677;-62
2023/06/07 05:19:54;;;;;;;5.15;3.88;;;21.50;53.10;;;;;;5071771;28;20272;-62
2023/06/07 05:22:21;;;;;;;4.22;3.30;;;21.50;53.10;;;;;;5071963;28;20548;-62
2023/06/07 05:24:47;;;;;;;4.53;2.92;;;21.50;53.00;;;;;;5072350;28;20637;-62
2023/06/07 05:27:12;;;;;;;3.95;3.03;;;21.50;53.00;;;;;;5071388;28;20224;-63
2023/06/07 05:29:41;;;;;;;5.07;2.90;;;21.50;53.00;;;;;;5072223;28;20166;-63
2023/06/07 05:32:07;;;;;;;4.60;3.00;;;21.50;53.00;;;;;;5072142;28;20208;-63
2023/06/07 05:34:32;;;;;;;6.25;3.25;;;21.50;53.00;;;;;;5071480;28;20171;-63
2023/06/07 05:36:58;;;;;;;5.30;2.97;;;21.50;53.00;;;;;;5072119;28;20175;-62
2023/06/07 05:39:23;;;;;;;4.57;2.95;;;21.50;53.00;;;;;;5072064;28;20222;-61
2023/06/07 05:41:50;;;;;;;4.38;3.00;;;21.50;53.10;;;;;;5075115;28;20193;-62
2023/06/07 05:44:16;;;;;;;6.20;3.08;;;21.50;53.10;;;;;;5075290;28;20184;-63
2023/06/07 05:46:41;;;;;;;5.20;2.80;;;21.50;53.10;;;;;;5075893;28;20567;-63
2023/06/07 05:49:07;;;;;;;3.35;2.80;;;21.50;53.20;;;;;;5074830;28;20166;-63
2023/06/07 05:51:32;;;;;;;5.63;2.90;;;21.40;53.10;;;;;;5075535;28;20174;-63
2023/06/07 05:53:58;;;;;;;6.07;2.97;;;21.50;53.20;;;;;;5075849;28;20656;-62
2023/06/07 05:56:27;;;;;;;4.53;2.97;;;21.40;53.20;;;;;;5074632;28;20257;-62
2023/06/07 05:58:53;;;;;;;6.88;3.78;;;21.50;53.20;;;;;;5075503;28;20272;-62
2023/06/07 06:01:18;;;;;;;4.05;3.03;;;21.40;53.20;;;;;;5075251;28;20178;-67
2023/06/07 06:03:44;;;;;;;3.92;2.80;;;21.50;53.20;;;;;;5074910;28;20659;-67
2023/06/07 06:06:14;;;;;;;4.88;2.80;;;21.50;53.40;;;;;;5075150;28;20178;-66
2023/06/07 06:08:40;;;;;;;5.90;3.20;;;21.40;53.30;;;;;;5075374;28;20213;-67
2023/06/07 06:11:06;;;;;;;4.50;3.28;;;21.50;53.40;;;;;;5074301;28;20202;-67
2023/06/07 06:13:32;;;;;;;6.03;2.80;;;21.50;53.30;;;;;;5075464;28;20178;-66
2023/06/07 06:15:58;;;;;;;4.63;3.33;;;21.50;53.30;;;;;;5075158;28;20182;-66
2023/06/07 06:18:23;;;;;;;4.70;2.90;;;21.50;53.20;;;;;;5074333;28;20206;-67
2023/06/07 06:20:49;;;;;;;5.00;3.08;;;21.50;53.20;;;;;;5075412;28;20476;-67
2023/06/07 06:23:15;;;;;;;5.25;3.08;;;21.60;53.30;;;;;;5074417;28;20637;-66
2023/06/07 06:25:40;;;;;;;4.18;3.00;;;21.60;53.40;;;;;;5075121;28;20178;-67
2023/06/07 06:28:06;;;;;;;4.78;3.17;;;21.60;53.30;;;;;;5075111;28;20193;-68
2023/06/07 06:30:32;;;;;;;3.95;2.75;;;21.60;53.40;;;;;;5074476;28;20172;-69
2023/06/07 06:32:59;;;;;;;4.60;3.22;;;21.60;53.30;;;;;;5075169;28;20700;-68
2023/06/07 06:35:25;;;;;;;5.18;3.10;;;21.60;53.30;;;;;;5074710;28;20171;-69
2023/06/07 06:37:50;;;;;;;4.60;3.00;;;21.60;53.30;;;;;;5074193;28;20643;-66
2023/06/07 06:40:19;;;;;;;9.57;3.05;;;21.60;53.50;;;;;;5074363;28;20171;-64
2023/06/07 06:42:45;;;;;;;7.28;3.10;;;21.60;53.60;;;;;;5075071;28;20182;-64
2023/06/07 06:45:11;;;;;;;5.32;3.28;;;21.60;53.60;;;;;;5073667;28;20171;-64
2023/06/07 06:47:41;;;;;;;7.28;3.25;;;21.60;53.50;;;;;;5074782;28;20712;-64
2023/06/07 06:50:08;;;;;;;9.45;3.53;;;21.60;53.50;;;;;;5074589;28;20178;-64
2023/06/07 06:52:33;;;;;;;4.78;3.15;;;21.60;53.50;;;;;;5073238;28;20641;-64
2023/06/07 06:54:59;;;;;;;4.28;3.05;;;21.60;53.50;;;;;;5074122;28;20182;-64
2023/06/07 06:57:24;;;;;;;3.67;2.85;;;21.60;53.60;;;;;;5074293;28;20213;-63
2023/06/07 06:59:50;;;;;;;4.20;2.63;;;21.60;53.70;;;;;;5073868;28;20186;-64
2023/06/07 07:02:15;;;;;;;5.78;3.30;;;21.60;53.60;;;;;;5074180;28;20179;-65
2023/06/07 07:04:41;;;;;;;4.50;3.33;;;21.60;53.60;;;;;;5074601;28;20175;-64
2023/06/07 07:07:07;;;;;;;3.90;2.70;;;21.60;53.60;;;;;;5072987;28;20525;-64
2023/06/07 07:09:33;;;;;;;4.07;2.83;;;21.60;53.50;;;;;;5073718;28;20170;-64
2023/06/07 07:11:58;;;;;;;4.22;3.30;;;21.60;53.40;;;;;;5074284;28;20664;-63
2023/06/07 07:14:24;;;;;;;5.43;2.95;;;21.60;53.40;;;;;;5073309;28;20171;-64
2023/06/07 07:16:49;;;;;;;4.68;2.92;;;21.70;53.40;;;;;;5073827;28;20677;-64
2023/06/07 07:19:15;;;;;;;4.47;2.92;;;21.70;53.40;;;;;;5073568;28;20174;-64
2023/06/07 07:21:43;;;;;;;3.50;2.60;;;21.70;53.40;;;;;;5073434;28;20178;-63
2023/06/07 07:24:08;;;;;;;3.17;2.60;;;21.70;53.30;;;;;;5073790;28;20185;-62
2023/06/07 07:26:35;;;;;;;4.72;3.45;;;21.70;53.30;;;;;;5073343;28;20170;-62
2023/06/07 07:29:01;;;;;;;4.53;2.60;;;21.70;53.30;;;;;;5074035;28;20179;-64
2023/06/07 07:31:29;;;;;;;3.67;2.88;;;21.80;53.30;;;;;;5073572;28;20190;-65
2023/06/07 07:33:55;;;;;;;3.75;2.47;;;21.80;53.20;;;;;;5073305;28;20178;-64
2023/06/07 07:36:22;;;;;;;4.22;2.78;;;21.80;53.20;;;;;;5073528;28;20186;-66
2023/06/07 07:38:48;;;;;;;5.35;3.05;;;21.80;53.20;;;;;;5073452;28;20286;-67
2023/06/07 07:41:14;;;;;;;4.38;3.17;;;21.90;53.20;;;;;;5072853;28;20186;-64
2023/06/07 07:43:40;;;;;;;5.88;2.80;;;21.90;53.20;;;;;;5073615;28;20174;-65
2023/06/07 07:46:06;;;;;;;8.40;3.10;;;21.90;53.10;;;;;;5073498;28;20219;-64
2023/06/07 07:48:34;;;;;;;4.80;2.95;;;22.00;53.20;;;;;;5072997;28;20549;-65
2023/06/07 07:51:00;;;;;;;6.45;3.00;;;22.00;53.30;;;;;;5073327;28;20174;-65
2023/06/07 07:53:25;;;;;;;4.03;2.90;;;22.00;53.30;;;;;;5072510;28;20207;-64
2023/06/07 07:55:51;;;;;;;4.70;3.03;;;22.00;53.30;;;;;;5072527;28;20632;-64
2023/06/07 07:58:16;;;;;;;5.53;2.80;;;22.00;53.30;;;;;;5072644;28;20289;-65
2023/06/07 08:00:42;;;;;;;6.90;3.10;;;22.00;53.30;;;;;;5073016;28;20223;-66
2023/06/07 08:03:08;;;;;;;4.10;2.75;;;22.00;53.30;;;;;;5070971;28;20261;-66
2023/06/07 08:05:33;;;;;;;5.22;3.05;;;22.10;53.40;;;;;;5073089;28;20171;-65
2023/06/07 08:08:00;;;;;;;5.60;3.17;;;22.00;53.30;;;;;;5073140;28;20175;-64
2023/06/07 08:10:26;;;;;;;3.88;2.70;;;22.10;53.30;;;;;;5072243;28;20261;-65
2023/06/07 08:12:52;;;;;;;5.57;2.97;;;22.10;53.20;;;;;;5073253;28;20252;-65
2023/06/07 08:15:17;;;;;;;4.32;2.80;;;22.10;53.30;;;;;;5072853;28;20299;-64
2023/06/07 08:17:43;;;;;;;5.43;2.88;;;22.20;53.30;;;;;;5072210;28;20198;-64
2023/06/07 08:20:09;;;;;;;3.42;2.83;;;22.20;53.30;;;;;;5072986;28;20271;-65
2023/06/07 08:22:37;;;;;;;5.60;3.33;;;22.20;53.20;;;;;;5072852;28;20261;-65
2023/06/07 08:25:04;;;;;;;5.20;3.10;;;22.20;53.40;;;;;;5072803;28;20178;-64
2023/06/07 08:27:29;;;;;;;4.15;3.20;;;22.20;53.30;;;;;;5072850;28;20186;-64
2023/06/07 08:29:55;;;;;;;2.88;2.38;;;22.20;53.40;;;;;;5072241;28;20166;-65
2023/06/07 08:32:21;;;;;;;4.35;2.88;;;22.20;53.40;;;;;;5072742;28;20185;-67
2023/06/07 08:34:47;;;;;;;3.20;2.42;;;22.20;53.50;;;;;;5072869;28;20652;-67
2023/06/07 08:37:12;;;;;;;3.72;2.83;;;22.20;53.50;;;;;;5071378;28;20297;-66
2023/06/07 08:39:38;;;;;;;4.03;2.90;;;22.20;53.60;;;;;;5073034;28;20247;-66
2023/06/07 08:42:03;;;;;;;3.33;3.03;;;22.20;53.70;;;;;;5072882;28;20539;-65
2023/06/07 08:44:29;;;;;;;5.93;3.00;;;22.10;53.70;;;;;;5071762;28;20587;-66
2023/06/07 08:46:55;;;;;;;3.75;2.83;;;22.10;53.80;;;;;;5072776;28;20173;-64
2023/06/07 08:49:21;;;;;;;3.47;2.67;;;22.10;53.80;;;;;;5070993;28;20304;-65
2023/06/07 08:51:47;;;;;;;3.78;2.58;;;22.20;53.70;;;;;;5070605;28;20188;-65
2023/06/07 08:54:13;;;;;;;4.05;2.83;;;22.20;53.60;;;;;;5072499;28;20174;-64
2023/06/07 08:56:39;;;;;;;4.07;2.45;;;22.20;53.60;;;;;;5072848;28;20212;-65
2023/06/07 08:59:05;;;;;;;4.30;2.97;;;22.20;53.70;;;;;;5070302;28;20306;-65
2023/06/07 09:01:34;;;;;;;5.68;2.72;;;22.10;53.70;;;;;;5072157;28;20706;-65
2023/06/07 09:04:00;;;;;;;5.13;3.15;;;22.10;53.70;;;;;;5071439;28;20185;-65
2023/06/07 09:06:26;;;;;;;3.67;2.60;;;22.10;53.80;;;;;;5071443;28;20172;-65
2023/06/07 09:08:52;;;;;;;3.42;2.80;;;22.20;53.80;;;;;;5072447;28;20545;-65
2023/06/07 09:11:17;;;;;;;4.25;2.72;;;22.10;53.70;;;;;;5072362;28;20171;-64
2023/06/07 09:13:43;;;;;;;3.53;2.85;;;22.10;53.80;;;;;;5071742;28;20633;-64
2023/06/07 09:16:11;;;;;;;3.20;2.70;;;22.10;53.80;;;;;;5075950;28;20174;-64
2023/06/07 09:18:53;;;;;;;4.05;2.30;;;22.10;53.80;;;;;;5076434;28;20201;-64
2023/06/07 09:21:26;;;;;;;4.93;2.60;;;22.10;53.80;;;;;;5075895;28;20182;-64
2023/06/07 09:23:51;;;;;;;4.72;2.80;;;22.10;53.80;;;;;;5076409;28;20261;-64
2023/06/07 09:26:18;;;;;;;3.53;2.63;;;22.10;53.80;;;;;;5075178;28;20285;-64
2023/06/07 09:28:46;;;;;;;3.80;2.78;;;22.10;53.80;;;;;;5076207;28;20171;-64
2023/06/07 09:31:11;;;;;;;3.10;2.45;;;22.10;53.80;;;;;;5075749;28;20213;-66
2023/06/07 09:33:37;;;;;;;3.85;2.80;;;22.10;53.80;;;;;;5075410;28;20209;-66
2023/06/07 09:36:11;;;;;;;3.30;3.00;;;22.10;53.80;;;;;;5076095;28;20544;-66
2023/06/07 09:38:36;;;;;;;4.20;2.58;;;22.10;53.80;;;;;;5076011;28;20347;-65
2023/06/07 09:41:03;;;;;;;3.75;2.85;;;22.10;53.80;;;;;;5075466;28;20167;-65
2023/06/07 09:43:50;;;;;;;3.63;2.60;;;22.10;53.70;;;;;;5075651;28;20183;-65
2023/06/07 09:46:19;;;;;;;2.92;2.63;;;22.10;53.70;;;;;;5075853;28;20182;-65
2023/06/07 09:48:49;;;;;;;3.85;2.78;;;22.10;53.70;;;;;;5075230;28;20182;-65
2023/06/07 09:51:15;;;;;;;4.75;3.03;;;22.10;53.70;;;;;;5075379;28;20178;-64
2023/06/07 09:53:56;;;;;;;2.67;2.45;;;22.10;53.70;;;;;;5075756;28;20175;-64
2023/06/07 09:56:22;;;;;;;4.43;2.80;;;22.10;53.70;;;;;;5074760;28;20649;-65
2023/06/07 09:59:06;;;;;;;3.63;2.70;;;22.10;53.80;;;;;;5075667;28;20665;-65
2023/06/07 10:01:32;;;;;;;4.22;2.53;;;22.10;53.70;;;;;;5075024;28;20178;-65
2023/06/07 10:03:59;;;;;;;3.45;2.67;;;22.10;53.70;;;;;;5075690;28;20179;-65
2023/06/07 10:06:25;;;;;;;4.38;3.22;;;22.20;53.70;;;;;;5075397;28;20186;-65
2023/06/07 10:08:50;;;;;;;4.78;3.20;;;22.20;53.70;;;;;;5073657;28;20179;-66
2023/06/07 10:11:16;;;;;;;2.67;2.47;;;22.20;53.70;;;;;;5074212;28;20266;-64
2023/06/07 10:13:41;;;;;;;3.15;2.78;;;22.20;53.60;;;;;;5074173;28;20236;-64
2023/06/07 10:16:10;;;;;;;3.50;2.70;;;22.20;53.60;;;;;;5073432;28;20331;-64
2023/06/07 10:18:36;;;;;;;3.20;2.70;;;22.20;53.60;;;;;;5074118;28;20210;-64
2023/06/07 10:21:02;;;;;;;4.95;2.90;;;22.30;53.50;;;;;;5074157;28;20179;-64
2023/06/07 10:23:35;;;;;;;3.30;2.65;;;22.30;53.40;;;;;;5074123;28;20188;-64
2023/06/07 10:26:07;;;;;;;3.70;3.20;;;22.30;53.40;;;;;;5074492;28;20187;-64
2023/06/07 10:28:39;;;;;;;3.50;2.40;;;22.40;53.40;;;;;;5075259;28;20200;-64
2023/06/07 10:31:08;;;;;;;4.97;3.30;;;22.40;53.40;;;;;;5074507;28;20182;-69
2023/06/07 10:33:34;;;;;;;5.78;3.20;;;22.40;53.50;;;;;;5073763;28;20515;-68
2023/06/07 10:36:00;;;;;;;3.65;2.60;;;22.40;53.40;;;;;;5074892;28;20237;-65
2023/06/07 10:38:32;;;;;;;4.55;2.85;;;22.40;53.40;;;;;;5073863;28;20584;-66
2023/06/07 10:40:58;;;;;;;5.13;3.20;;;22.50;53.50;;;;;;5074909;28;20182;-68
2023/06/07 10:43:28;;;;;;;4.95;2.70;;;22.50;53.60;;;;;;5072952;28;20167;-69
2023/06/07 10:46:19;;;;;;;3.25;2.72;;;22.60;53.50;;;;;;5073686;28;20178;-68
2023/06/07 10:48:45;;;;;;;4.20;2.63;;;22.70;53.30;;;;;;5074995;28;20175;-68
2023/06/07 10:51:15;;;;;;;3.67;2.95;;;22.80;53.30;;;;;;5073680;28;20200;-67
2023/06/07 10:53:55;;;;;;;5.32;3.25;;;22.70;53.40;;;;;;5074907;28;20290;-67
2023/06/07 10:56:30;;;;;;;2.88;2.58;;;22.70;53.50;;;;;;5074439;28;20205;-68
2023/06/07 10:58:57;;;;;;;4.20;2.60;;;22.80;53.60;;;;;;5073799;28;20237;-68
2023/06/07 11:01:27;;;;;;;7.07;2.55;;;22.70;53.60;;;;;;5074538;28;20178;-68
2023/06/07 11:03:53;;;;;;;5.28;2.72;;;22.70;53.70;;;;;;5074679;28;20212;-69
2023/06/07 11:06:19;;;;;;;4.00;2.90;;;22.60;53.80;;;;;;5072141;28;20235;-68
2023/06/07 11:08:44;;;;;;;5.25;2.70;;;22.60;53.90;;;;;;5074445;28;20171;-68
2023/06/07 11:11:47;;;;;;;6.88;3.08;;;22.60;53.80;;;;;;5074051;28;20683;-67
2023/06/07 11:14:12;;;;;;;6.10;3.17;;;22.70;53.90;;;;;;5074139;28;20178;-70
2023/06/07 11:16:38;;;;;;;6.57;3.08;;;22.70;53.90;;;;;;5074239;28;20169;-68
2023/06/07 11:19:09;;;;;;;8.73;3.08;;;22.70;53.90;;;;;;5073188;28;20245;-69
2023/06/07 11:22:06;;;;;;;6.43;3.05;;;22.70;53.90;;;;;;5073630;28;20178;-68
2023/06/07 11:24:32;;;;;;;8.88;3.25;;;22.70;53.90;;;;;;5072979;28;20276;-68
2023/06/07 11:26:58;;;;;;;5.18;2.90;;;22.70;53.90;;;;;;5073211;28;20175;-68
2023/06/07 11:29:24;;;;;;;4.30;2.80;;;22.70;53.90;;;;;;5073687;28;20170;-68
2023/06/07 11:32:00;;;;;;;4.90;3.17;;;22.70;53.90;;;;;;5074198;28;20634;-68
2023/06/07 11:34:30;;;;;;;5.85;2.80;;;22.70;53.90;;;;;;5072854;28;20283;-71
2023/06/07 11:37:16;;;;;;;4.78;2.60;;;22.60;53.90;;;;;;5074053;28;20182;-72
2023/06/07 11:39:42;;;;;;;3.42;2.60;;;22.70;53.90;;;;;;5073146;28;20186;-71
2023/06/07 11:42:08;;;;;;;3.72;2.80;;;22.70;53.90;;;;;;5073610;28;20203;-69
2023/06/07 11:44:34;;;;;;;2.78;2.58;;;22.70;53.90;;;;;;5073644;28;20235;-70
2023/06/07 11:47:05;;;;;;;4.45;2.75;;;22.70;53.80;;;;;;5073121;28;20629;-69
2023/06/07 11:49:32;;;;;;;3.83;2.83;;;22.70;53.80;;;;;;5072576;28;20305;-68
2023/06/07 11:51:58;;;;;;;4.13;2.67;;;22.70;53.80;;;;;;5073443;28;20605;-68
2023/06/07 11:54:25;;;;;;;3.78;2.53;;;22.70;53.80;;;;;;5072305;28;20249;-68
2023/06/07 11:56:50;;;;;;;4.10;2.30;;;22.70;53.80;;;;;;5073468;28;20178;-69
2023/06/07 11:59:16;;;;;;;3.20;2.63;;;22.70;53.70;;;;;;5073011;28;20210;-70
2023/06/07 12:01:43;;;;;;;3.25;2.53;;;22.70;53.80;;;;;;5071449;28;20647;-71
2023/06/07 12:04:09;;;;;;;3.80;2.60;;;22.70;53.80;;;;;;5071943;28;20652;-71
2023/06/07 12:06:35;;;;;;;4.53;2.85;;;22.80;53.80;;;;;;5072193;28;20170;-69
2023/06/07 12:09:01;;;;;;;4.35;3.00;;;22.70;53.70;;;;;;5072678;28;20281;-69
2023/06/07 12:11:27;;;;;;;4.45;2.67;;;22.70;53.80;;;;;;5073177;28;20166;-69
2023/06/07 12:13:59;;;;;;;3.90;3.17;;;22.70;53.80;;;;;;5073071;28;20170;-69
2023/06/07 12:16:26;;;;;;;3.03;2.58;;;22.70;53.80;;;;;;5072154;28;20504;-69
2023/06/07 12:18:52;;;;;;;3.42;2.50;;;22.70;53.80;;;;;;5072909;28;20582;-68
2023/06/07 12:21:18;;;;;;;4.45;2.83;;;22.70;53.80;;;;;;5071457;28;20228;-69
2023/06/07 12:23:51;;;;;;;4.85;2.80;;;22.70;53.80;;;;;;5072221;28;20706;-68
2023/06/07 12:26:21;;;;;;;4.30;2.58;;;22.70;53.90;;;;;;5073107;28;20175;-68
2023/06/07 12:28:48;;;;;;;3.08;2.40;;;22.80;54.00;;;;;;5071811;28;20232;-70
2023/06/07 12:31:24;;;;;;;6.63;2.80;;;22.80;53.90;;;;;;5072304;28;20271;-69
2023/06/07 12:33:56;;;;;;;3.42;2.70;;;22.90;53.80;;;;;;5073126;28;20184;-71
2023/06/07 12:36:22;;;;;;;3.55;2.20;;;22.90;53.60;;;;;;5071684;28;20174;-72
2023/06/07 12:38:48;;;;;;;5.28;2.95;;;22.90;53.70;;;;;;5071385;28;20240;-71
2023/06/07 12:41:13;;;;;;;3.40;2.35;;;22.90;53.70;;;;;;5072616;28;20253;-71
2023/06/07 12:43:46;;;;;;;2.50;2.30;;;23.00;53.60;;;;;;5071999;28;20224;-71
2023/06/07 12:46:11;;;;;;;3.20;2.20;;;23.10;53.50;;;;;;5072377;28;20178;-71
2023/06/07 12:48:38;;;;;;;3.25;2.60;;;23.20;53.40;;;;;;5072622;28;20185;-70